Startpagina
METAR-TAF:

METAR-TAF

Vliegvelden :

Esmeraldas, Ecuador

breedte: 00-58-43N, lengte: 079-37-36W, hoogte: 10 m

Actueel weer

Dit bericht is 13 uur en het 57 minuten geleden gemaakt, om 19:00 UTC
Wind 3 kt uit het zuiden
Temperatuur 29°C
Vochtigheid 84%
Druk 1009 hPa
Zicht 10 km of meer
Verspreide wolken op 3000 ft
Geheel bewolkt op 4000 ft

METAR: SETN 181900Z 17003KT 9999 SCT030 OVC040 29/26 Q1008 A2979

Tijdstip: 03:57 (08:57 UTC)


TAF: ontbreekt

Waarnemingen en weersverwachtingen van meer dan 4000 vliegvelden (METAR en TAF).

De beschikbare stations zijn de gele en rode punten op de kaart.

Ga met uw muis naar het station om de naam te zien.

Klik dan om waarnemingen en weersverwachtingen te zien.

kaart wijzigen: klik op de groene knoppen met een zwart kruis om in te zoomen, op de groene knop met een streepje om uit te zoomen of op de groene pijlen voor aangrenzende kaarten.


METAR-TAF: